Time;durP1;ratioP1;P1;durP2;ratioP2;P2;SDS_P1;SDS_P2;PMS_P1;PMS_P2;Temp;Humidity;BMP_temperature;BMP_pressure;BME280_temperature;BME280_humidity;BME280_pressure;Samples;Min_cycle;Max_cycle;Signal;HPM_P1;HPM_P2
2021/10/04 00:00:10;;;;;;;0.00;0.00;;;10.60;99.90;;;;;;6270834;22;20030;-91
2021/10/04 00:02:45;;;;;;;0.00;0.00;;;10.70;99.90;;;;;;6269770;22;20095;-90
2021/10/04 00:05:13;;;;;;;;;;;10.70;99.90;;;;;;6296015;22;20087;-91
2021/10/04 00:07:42;;;;;;;0.10;0.10;;;10.70;99.90;;;;;;6294577;22;19915;-90
2021/10/04 00:10:14;;;;;;;0.10;0.10;;;10.70;99.90;;;;;;6294635;22;20012;-91
2021/10/04 00:12:42;;;;;;;0.10;0.10;;;10.70;99.90;;;;;;6294800;22;20012;-91
2021/10/04 00:15:12;;;;;;;0.00;0.00;;;10.70;99.90;;;;;;6294651;22;20328;-90
2021/10/04 00:17:39;;;;;;;0.20;0.17;;;10.70;99.90;;;;;;6294839;22;20164;-91
2021/10/04 00:20:12;;;;;;;0.00;0.00;;;10.70;99.90;;;;;;6294542;22;20064;-91
2021/10/04 00:22:42;;;;;;;0.32;0.10;;;10.70;99.90;;;;;;6294511;22;20018;-91
2021/10/04 00:25:14;;;;;;;0.00;0.00;;;10.70;99.90;;;;;;6293833;22;20023;-91
2021/10/04 00:27:44;;;;;;;0.10;0.10;;;10.70;99.90;;;;;;6294041;22;20015;-90
2021/10/04 00:30:12;;;;;;;0.00;0.00;;;10.70;99.90;;;;;;6269131;22;20012;-91
2021/10/04 00:32:44;;;;;;;0.00;0.00;;;10.70;99.90;;;;;;6294590;22;20007;-91
2021/10/04 00:35:18;;;;;;;0.00;0.00;;;10.70;99.90;;;;;;6295012;22;20014;-90
2021/10/04 00:37:46;;;;;;;0.00;0.00;;;10.70;99.90;;;;;;6270004;22;20012;-91
2021/10/04 00:40:43;;;;;;;0.00;0.00;;;10.70;99.90;;;;;;6294267;22;20027;-91
2021/10/04 00:43:10;;;;;;;0.00;0.00;;;10.80;99.90;;;;;;6287401;22;20039;-90
2021/10/04 00:45:47;;;;;;;0.00;0.00;;;10.80;99.90;;;;;;6294490;22;20016;-91
2021/10/04 00:48:14;;;;;;;0.00;0.00;;;10.70;99.90;;;;;;6295119;22;20008;-91
2021/10/04 00:50:43;;;;;;;0.08;0.08;;;10.70;99.90;;;;;;6294199;22;20011;-90
2021/10/04 00:53:10;;;;;;;0.00;0.00;;;10.70;99.90;;;;;;6294919;22;20514;-92
2021/10/04 00:55:38;;;;;;;0.10;0.10;;;10.70;99.90;;;;;;6294315;22;20069;-91
2021/10/04 00:58:05;;;;;;;0.00;0.00;;;10.70;99.90;;;;;;6295096;22;20016;-90
2021/10/04 01:00:33;;;;;;;0.08;0.08;;;10.70;99.90;;;;;;6294147;22;20011;-91
2021/10/04 01:03:00;;;;;;;0.10;0.10;;;10.80;99.90;;;;;;6294236;22;20157;-91
2021/10/04 01:05:27;;;;;;;0.00;0.00;;;10.70;99.90;;;;;;6294094;22;20057;-90
2021/10/04 01:07:57;;;;;;;0.10;0.10;;;10.70;99.90;;;;;;6269183;22;20363;-90
2021/10/04 01:10:24;;;;;;;0.00;0.00;;;10.70;99.90;;;;;;6293931;22;20012;-90
2021/10/04 01:12:51;;;;;;;0.00;0.00;;;10.50;99.90;;;;;;6293789;22;20091;-90
2021/10/04 01:15:21;;;;;;;0.05;0.05;;;10.80;99.90;;;;;;6294472;22;20008;-91
2021/10/04 01:17:48;;;;;;;0.00;0.00;;;10.80;99.90;;;;;;6294152;22;20012;-92
2021/10/04 01:20:25;;;;;;;0.00;0.00;;;10.70;99.90;;;;;;6294063;22;20008;-91
2021/10/04 01:22:54;;;;;;;0.08;0.08;;;10.40;99.90;;;;;;6294216;22;20012;-90
2021/10/04 01:25:21;;;;;;;0.00;0.00;;;10.70;99.90;;;;;;6293971;22;20011;-91
2021/10/04 01:27:49;;;;;;;0.00;0.00;;;10.70;99.90;;;;;;6294072;22;20011;-90
2021/10/04 01:30:19;;;;;;;0.00;0.00;;;10.80;99.90;;;;;;6294322;22;20022;-90
2021/10/04 01:32:46;;;;;;;0.10;0.10;;;10.70;99.90;;;;;;6294056;22;20298;-90
2021/10/04 01:35:14;;;;;;;0.10;0.10;;;10.70;99.90;;;;;;6294117;22;20073;-91
2021/10/04 01:37:41;;;;;;;0.00;0.00;;;10.40;99.90;;;;;;6294391;22;20019;-91
2021/10/04 01:40:10;;;;;;;0.00;0.00;;;10.70;99.90;;;;;;6293877;22;20136;-91
2021/10/04 01:42:38;;;;;;;0.00;0.00;;;10.70;99.90;;;;;;6294413;22;20047;-90
2021/10/04 01:45:08;;;;;;;0.00;0.00;;;10.80;99.90;;;;;;6293897;22;20092;-91
2021/10/04 01:47:36;;;;;;;0.00;0.00;;;10.70;99.90;;;;;;6293700;22;20335;-91
2021/10/04 01:50:05;;;;;;;0.00;0.00;;;10.70;99.90;;;;;;6268253;22;20008;-91
2021/10/04 01:52:34;;;;;;;0.00;0.00;;;10.70;99.90;;;;;;6269158;22;20012;-91
2021/10/04 01:55:01;;;;;;;0.00;0.00;;;10.70;99.90;;;;;;6293839;22;20047;-91
2021/10/04 01:57:31;;;;;;;0.03;0.03;;;10.70;99.90;;;;;;6293644;22;20011;-91
2021/10/04 02:00:11;;;;;;;0.00;0.00;;;10.70;99.90;;;;;;6293877;22;20012;-92
2021/10/04 02:02:43;;;;;;;0.00;0.00;;;10.80;99.90;;;;;;6293777;22;20011;-91
2021/10/04 02:05:14;;;;;;;0.10;0.10;;;10.70;99.90;;;;;;6293832;22;20018;-92
2021/10/04 02:07:41;;;;;;;0.00;0.00;;;10.40;99.90;;;;;;6293999;22;20023;-92
2021/10/04 02:10:11;;;;;;;0.10;0.10;;;10.80;99.90;;;;;;6293227;22;20011;-91
2021/10/04 02:12:38;;;;;;;0.00;0.00;;;10.80;99.90;;;;;;6293541;22;20031;-91
2021/10/04 02:15:06;;;;;;;0.03;0.03;;;10.70;99.90;;;;;;6293711;22;20015;-91
2021/10/04 02:17:34;;;;;;;0.00;0.00;;;10.80;99.90;;;;;;6293901;22;20325;-90
2021/10/04 02:20:04;;;;;;;0.00;0.00;;;10.70;99.90;;;;;;6293894;22;20064;-90
2021/10/04 02:22:31;;;;;;;0.00;0.00;;;10.70;99.90;;;;;;6269069;22;20011;-91
2021/10/04 02:24:58;;;;;;;0.00;0.00;;;10.70;99.90;;;;;;6293276;22;20020;-90
2021/10/04 02:27:24;;;;;;;0.00;0.00;;;10.40;99.90;;;;;;6293689;22;20023;-91
2021/10/04 02:29:54;;;;;;;0.00;0.00;;;10.70;99.90;;;;;;6293730;22;20091;-91
2021/10/04 02:32:21;;;;;;;0.10;0.10;;;10.70;99.90;;;;;;6268890;22;20047;-90
2021/10/04 02:34:48;;;;;;;0.13;0.13;;;10.70;99.90;;;;;;6293943;22;20011;-90
2021/10/04 02:37:15;;;;;;;0.00;0.00;;;10.70;99.90;;;;;;6293510;22;20428;-90
2021/10/04 02:39:42;;;;;;;0.10;0.10;;;10.70;99.90;;;;;;6294057;22;20037;-91
2021/10/04 02:42:09;;;;;;;0.00;0.00;;;10.70;99.90;;;;;;6243076;22;20042;-91
2021/10/04 02:44:36;;;;;;;0.00;0.00;;;10.70;99.90;;;;;;6293889;22;20023;-91
2021/10/04 02:47:03;;;;;;;0.00;0.00;;;10.70;99.90;;;;;;6268315;22;20047;-91
2021/10/04 02:49:30;;;;;;;0.00;0.00;;;10.70;99.90;;;;;;6295446;22;20011;-90
2021/10/04 02:51:56;;;;;;;0.10;0.10;;;10.70;99.90;;;;;;6295460;22;20069;-91
2021/10/04 02:54:23;;;;;;;0.00;0.00;;;10.70;99.90;;;;;;6295803;22;20058;-92
2021/10/04 02:56:50;;;;;;;0.00;0.00;;;10.60;99.90;;;;;;6270666;22;20018;-91
2021/10/04 02:59:17;;;;;;;0.00;0.00;;;10.70;99.90;;;;;;6295477;22;20011;-92
2021/10/04 03:01:44;;;;;;;0.00;0.00;;;10.60;99.90;;;;;;6295907;22;20019;-91
2021/10/04 03:04:11;;;;;;;0.03;0.03;;;10.60;99.90;;;;;;6270294;22;20043;-91
2021/10/04 03:06:38;;;;;;;0.00;0.00;;;10.60;99.90;;;;;;6295704;22;20050;-91
2021/10/04 03:09:05;;;;;;;0.00;0.00;;;10.60;99.90;;;;;;6295046;22;20012;-92
2021/10/04 03:11:32;;;;;;;0.00;0.00;;;10.50;99.90;;;;;;6269830;22;20046;-92
2021/10/04 03:13:59;;;;;;;0.00;0.00;;;10.60;99.90;;;;;;6295405;22;20007;-91
2021/10/04 03:16:26;;;;;;;0.10;0.10;;;10.60;99.90;;;;;;6295130;22;20046;-91
2021/10/04 03:18:53;;;;;;;0.00;0.00;;;10.60;99.90;;;;;;6295633;22;20012;-91
2021/10/04 03:21:19;;;;;;;0.10;0.10;;;10.60;99.90;;;;;;6295009;22;20012;-91
2021/10/04 03:23:46;;;;;;;0.10;0.10;;;10.60;99.90;;;;;;6270079;22;20026;-92
2021/10/04 03:26:13;;;;;;;0.00;0.00;;;10.60;99.90;;;;;;6269654;22;20425;-91
2021/10/04 03:28:40;;;;;;;0.00;0.00;;;10.60;99.90;;;;;;6295136;22;20012;-91
2021/10/04 03:31:12;;;;;;;0.00;0.00;;;10.60;99.90;;;;;;6295098;22;20432;-91
2021/10/04 03:33:39;;;;;;;0.00;0.00;;;10.10;99.90;;;;;;6271052;22;20019;-91
2021/10/04 03:36:06;;;;;;;0.00;0.00;;;10.60;99.90;;;;;;6295327;22;20012;-91
2021/10/04 03:38:33;;;;;;;0.10;0.10;;;10.70;99.90;;;;;;6295336;22;20454;-91
2021/10/04 03:41:00;;;;;;;0.00;0.00;;;10.50;99.90;;;;;;6294898;22;20042;-91
2021/10/04 03:43:27;;;;;;;0.00;0.00;;;10.50;99.90;;;;;;6295420;22;20069;-91
2021/10/04 03:45:54;;;;;;;0.00;0.00;;;10.50;99.90;;;;;;6270394;22;20599;-90
2021/10/04 03:48:21;;;;;;;0.00;0.00;;;10.50;99.90;;;;;;6269778;22;20019;-91
2021/10/04 03:50:48;;;;;;;0.00;0.00;;;10.50;99.90;;;;;;6269631;22;20015;-90
2021/10/04 03:53:15;;;;;;;0.00;0.00;;;10.50;99.90;;;;;;6294853;22;20054;-90
2021/10/04 03:55:42;;;;;;;0.00;0.00;;;10.50;99.90;;;;;;6295239;22;20018;-90
2021/10/04 03:58:09;;;;;;;0.00;0.00;;;10.50;99.90;;;;;;6294478;22;20050;-91
2021/10/04 04:00:35;;;;;;;0.00;0.00;;;10.50;99.90;;;;;;6295248;22;20019;-91
2021/10/04 04:03:04;;;;;;;0.00;0.00;;;10.50;99.90;;;;;;6294774;22;20022;-91
2021/10/04 04:05:32;;;;;;;0.00;0.00;;;10.50;99.90;;;;;;6295025;22;20081;-91
2021/10/04 04:08:02;;;;;;;0.00;0.00;;;10.50;99.90;;;;;;6294968;22;20016;-91
2021/10/04 04:10:28;;;;;;;0.00;0.00;;;10.50;99.90;;;;;;6270056;22;20337;-91
2021/10/04 04:12:55;;;;;;;0.00;0.00;;;10.40;99.90;;;;;;6294975;22;20012;-90
2021/10/04 04:15:22;;;;;;;0.00;0.00;;;10.50;99.90;;;;;;6294724;22;20428;-91
2021/10/04 04:17:49;;;;;;;0.00;0.00;;;10.40;99.90;;;;;;6294251;22;20008;-91
2021/10/04 04:20:16;;;;;;;0.00;0.00;;;10.40;99.90;;;;;;6294759;22;20021;-91
2021/10/04 04:22:44;;;;;;;0.00;0.00;;;10.50;99.90;;;;;;6294768;22;20090;-91
2021/10/04 04:25:13;;;;;;;0.00;0.00;;;10.50;99.90;;;;;;6294150;22;20066;-91
2021/10/04 04:27:40;;;;;;;0.00;0.00;;;10.50;99.90;;;;;;6294867;22;20432;-91
2021/10/04 04:30:09;;;;;;;0.00;0.00;;;10.50;99.90;;;;;;6294605;22;20023;-91
2021/10/04 04:32:37;;;;;;;0.00;0.00;;;10.50;99.90;;;;;;6294680;22;20019;-91
2021/10/04 04:35:07;;;;;;;0.00;0.00;;;10.50;99.90;;;;;;6295199;22;20042;-91
2021/10/04 04:37:36;;;;;;;0.00;0.00;;;10.40;99.90;;;;;;6294605;22;20031;-90
2021/10/04 04:40:05;;;;;;;0.00;0.00;;;10.50;99.90;;;;;;6294771;22;20015;-91
2021/10/04 04:42:32;;;;;;;0.10;0.10;;;10.50;99.90;;;;;;6294236;22;20043;-91
2021/10/04 04:44:59;;;;;;;0.00;0.00;;;10.50;99.90;;;;;;6295141;22;20379;-92
2021/10/04 04:47:31;;;;;;;0.10;0.10;;;10.50;99.90;;;;;;6293937;22;20077;-91
2021/10/04 04:50:01;;;;;;;0.00;0.00;;;10.60;99.90;;;;;;6294501;22;20012;-91
2021/10/04 04:52:29;;;;;;;0.00;0.00;;;10.50;99.90;;;;;;6319808;22;20018;-91
2021/10/04 04:54:56;;;;;;;0.00;0.00;;;10.50;99.90;;;;;;6269451;22;20489;-92
2021/10/04 04:57:23;;;;;;;0.00;0.00;;;10.50;99.90;;;;;;6294242;22;20428;-91
2021/10/04 04:59:51;;;;;;;0.00;0.00;;;10.40;99.90;;;;;;6294219;22;20008;-91
2021/10/04 05:02:19;;;;;;;0.00;0.00;;;10.40;99.90;;;;;;6294260;22;20012;-91
2021/10/04 05:04:46;;;;;;;0.00;0.00;;;10.50;99.90;;;;;;6294721;22;20022;-90
2021/10/04 05:07:16;;;;;;;0.00;0.00;;;10.50;99.90;;;;;;6294185;22;20090;-91
2021/10/04 05:09:42;;;;;;;0.00;0.00;;;10.40;99.90;;;;;;6269293;22;20436;-91
2021/10/04 05:12:10;;;;;;;0.00;0.00;;;10.40;99.90;;;;;;6293626;22;20095;-91
2021/10/04 05:14:37;;;;;;;0.00;0.00;;;10.40;99.90;;;;;;6294849;22;20336;-91
2021/10/04 05:17:04;;;;;;;0.00;0.00;;;10.60;99.90;;;;;;6294320;22;20012;-91
2021/10/04 05:19:31;;;;;;;0.00;0.00;;;10.40;99.90;;;;;;6294227;22;20583;-91
2021/10/04 05:21:58;;;;;;;0.00;0.00;;;10.00;99.90;;;;;;6293481;22;20018;-91
2021/10/04 05:24:27;;;;;;;0.00;0.00;;;10.40;99.90;;;;;;6293772;22;20343;-92
2021/10/04 05:26:56;;;;;;;0.10;0.10;;;10.40;99.90;;;;;;6269187;22;20016;-91
2021/10/04 05:29:24;;;;;;;0.00;0.00;;;10.40;99.90;;;;;;6244364;22;20015;-91
2021/10/04 05:31:52;;;;;;;0.00;0.00;;;10.40;99.90;;;;;;6244021;22;20340;-90
2021/10/04 05:34:21;;;;;;;0.00;0.00;;;10.30;99.90;;;;;;6268688;22;20011;-93
2021/10/04 05:36:48;;;;;;;0.00;0.00;;;10.30;99.90;;;;;;6246724;22;20039;-94
2021/10/04 05:39:16;;;;;;;0.00;0.00;;;10.40;99.90;;;;;;6268666;22;20011;-92
2021/10/04 05:41:45;;;;;;;0.08;0.08;;;10.30;99.90;;;;;;6245839;22;20375;-96
2021/10/04 05:44:27;;;;;;;0.00;0.00;;;10.40;99.90;;;;;;6269426;22;20015;-96
2021/10/04 05:47:00;;;;;;;0.00;0.00;;;10.50;99.90;;;;;;6273689;22;20038;-95
2021/10/04 05:49:43;;;;;;;0.00;0.00;;;10.30;99.90;;;;;;6254289;23;20368;-90
2021/10/04 05:52:12;;;;;;;0.00;0.00;;;10.40;99.90;;;;;;6260025;22;20024;-92
2021/10/04 05:54:42;;;;;;;0.00;0.00;;;10.40;99.90;;;;;;6268404;22;20014;-92
2021/10/04 05:58:01;;;;;;;0.00;0.00;;;10.40;99.90;;;;;;6206812;23;20118;-94
2021/10/04 06:00:29;;;;;;;0.00;0.00;;;10.40;99.90;;;;;;6177465;23;20009;-92
2021/10/04 06:03:10;;;;;;;0.10;0.10;;;10.30;99.90;;;;;;6220934;22;20016;-91
2021/10/04 06:05:37;;;;;;;0.00;0.00;;;10.30;99.90;;;;;;6222472;22;20099;-92
2021/10/04 06:08:22;;;;;;;;;;;;;;;;;;;;;
2021/10/04 06:15:14;;;;;;;0.00;0.00;;;10.40;99.90;;;;;;6030119;23;20019;-91
2021/10/04 06:25:01;;;;;;;0.00;0.00;;;10.20;99.90;;;;;;6019060;23;20380;-94
2021/10/04 06:27:31;;;;;;;0.00;0.00;;;10.50;99.90;;;;;;6005119;23;20475;-93
2021/10/04 06:30:14;;;;;;;0.00;0.00;;;10.70;99.90;;;;;;6082214;23;20111;-93
2021/10/04 06:32:44;;;;;;;0.10;0.10;;;10.50;99.90;;;;;;6135286;23;20280;-90
2021/10/04 06:35:14;;;;;;;0.00;0.00;;;10.50;99.90;;;;;;6212864;23;20480;-94
2021/10/04 06:37:41;;;;;;;0.00;0.00;;;10.60;99.90;;;;;;6221334;22;20012;-90
2021/10/04 06:40:08;;;;;;;0.00;0.00;;;10.60;99.90;;;;;;6245466;22;20037;-96
2021/10/04 06:42:35;;;;;;;0.00;0.00;;;10.70;99.90;;;;;;6270244;22;20230;-91
2021/10/04 06:45:02;;;;;;;0.00;0.00;;;10.70;99.90;;;;;;6271469;22;20039;-90
2021/10/04 06:47:29;;;;;;;0.00;0.00;;;10.80;99.90;;;;;;6271226;22;20011;-90
2021/10/04 06:49:56;;;;;;;0.03;0.03;;;10.80;99.90;;;;;;6271333;22;20062;-90
2021/10/04 06:52:38;;;;;;;0.00;0.00;;;10.90;99.90;;;;;;6271326;22;20455;-95
2021/10/04 06:55:06;;;;;;;0.00;0.00;;;10.90;99.90;;;;;;6247355;22;20016;-88
2021/10/04 06:57:36;;;;;;;0.00;0.00;;;10.90;99.90;;;;;;6269693;22;20043;-90
2021/10/04 07:00:05;;;;;;;0.00;0.00;;;10.90;99.90;;;;;;6269731;22;20065;-84
2021/10/04 07:02:32;;;;;;;0.00;0.00;;;11.00;99.90;;;;;;6269663;22;20015;-85
2021/10/04 07:04:59;;;;;;;0.00;0.00;;;11.00;99.90;;;;;;6244273;22;20491;-89
2021/10/04 07:07:27;;;;;;;0.00;0.00;;;11.00;99.90;;;;;;6269365;22;20023;-85
2021/10/04 07:09:54;;;;;;;0.00;0.00;;;11.00;99.90;;;;;;6269579;22;20016;-85
2021/10/04 07:12:24;;;;;;;0.00;0.00;;;11.10;99.90;;;;;;6219910;22;20022;-89
2021/10/04 07:14:52;;;;;;;0.00;0.00;;;11.10;99.90;;;;;;6269971;22;20011;-86
2021/10/04 07:17:19;;;;;;;0.10;0.10;;;11.10;99.90;;;;;;6269214;22;20011;-85
2021/10/04 07:19:47;;;;;;;0.00;0.00;;;11.00;99.90;;;;;;6269464;22;20458;-87
2021/10/04 07:22:23;;;;;;;0.10;0.10;;;11.10;99.90;;;;;;6273606;22;20012;-89
2021/10/04 07:24:50;;;;;;;0.00;0.00;;;11.10;99.90;;;;;;6272664;22;20027;-93
2021/10/04 07:27:17;;;;;;;0.00;0.00;;;11.10;99.90;;;;;;6294785;22;20019;-91
2021/10/04 07:29:53;;;;;;;0.00;0.00;;;11.20;99.90;;;;;;6295162;22;20020;-94
2021/10/04 07:32:26;;;;;;;0.00;0.00;;;11.20;99.90;;;;;;6270667;22;20022;-92
2021/10/04 07:34:53;;;;;;;0.00;0.00;;;10.60;99.90;;;;;;6294989;22;20011;-95
2021/10/04 07:37:20;;;;;;;0.00;0.00;;;11.20;99.90;;;;;;6295304;22;20125;-91
2021/10/04 07:39:47;;;;;;;0.00;0.00;;;11.20;99.90;;;;;;6295140;22;20012;-88
2021/10/04 07:42:14;;;;;;;0.00;0.00;;;11.20;99.90;;;;;;6295317;22;20144;-87
2021/10/04 07:45:05;;;;;;;0.00;0.00;;;11.00;99.90;;;;;;6295207;22;20016;-93
2021/10/04 07:47:32;;;;;;;0.03;0.03;;;11.20;99.90;;;;;;6295276;22;20465;-86
2021/10/04 07:49:59;;;;;;;0.00;0.00;;;11.20;99.90;;;;;;6269909;22;20094;-94
2021/10/04 07:52:26;;;;;;;0.00;0.00;;;11.30;99.90;;;;;;6294655;22;20016;-88
2021/10/04 07:54:53;;;;;;;0.00;0.00;;;11.30;99.90;;;;;;6295590;22;20098;-91
2021/10/04 07:57:27;;;;;;;0.00;0.00;;;11.30;99.90;;;;;;6296341;22;20008;-90
2021/10/04 08:00:00;;;;;;;0.00;0.00;;;11.30;99.90;;;;;;6270027;22;20059;-95
2021/10/04 08:02:57;;;;;;;0.00;0.00;;;11.40;99.90;;;;;;6320178;22;20094;-94
2021/10/04 08:06:29;;;;;;;;;;;;;;;;;;;;;
2021/10/04 08:09:18;;;;;;;;;;;;;;;;;;;;;
2021/10/04 08:16:06;;;;;;;;;;;;;;;;;;;;;
2021/10/04 08:19:12;;;;;;;0.03;0.03;;;11.50;99.90;;;;;;6151647;23;20009;-93
2021/10/04 08:22:34;;;;;;;;;;;;;;;;;;;;;
2021/10/04 08:26:07;;;;;;;0.00;0.00;;;11.60;99.90;;;;;;6320037;22;20027;-94
2021/10/04 08:28:37;;;;;;;0.00;0.00;;;11.60;99.90;;;;;;6294395;22;20019;-93
2021/10/04 08:31:17;;;;;;;;;;;;;;;;;;;;;
2021/10/04 08:34:13;;;;;;;0.00;0.00;;;11.60;99.90;;;;;;6290360;22;20016;-96
2021/10/04 08:36:54;;;;;;;1.20;0.22;;;11.70;99.90;;;;;;6283283;22;20026;-92
2021/10/04 08:39:29;;;;;;;0.00;0.00;;;11.70;99.90;;;;;;6244306;22;20015;-91
2021/10/04 09:02:48;;;;;;;0.00;0.00;;;11.80;99.90;;;;;;6320768;22;20030;-87
2021/10/04 09:05:27;;;;;;;0.00;0.00;;;11.70;99.90;;;;;;6268679;22;20077;-88
2021/10/04 10:54:53;;;;;;;0.00;0.00;;;15.10;99.90;;;;;;6281311;22;20991;-89
2021/10/04 10:57:50;;;;;;;0.00;0.00;;;15.10;99.90;;;;;;6284802;22;20026;-89
2021/10/04 11:00:19;;;;;;;0.00;0.00;;;15.20;99.90;;;;;;6237828;23;20051;-88
2021/10/04 11:02:55;;;;;;;0.00;0.00;;;15.30;99.90;;;;;;6236893;23;20027;-87
2021/10/04 11:05:35;;;;;;;0.05;0.05;;;15.40;99.90;;;;;;6237453;23;20016;-89
2021/10/04 11:08:03;;;;;;;0.00;0.00;;;15.40;99.90;;;;;;6238574;23;20024;-88
2021/10/04 11:10:34;;;;;;;0.00;0.00;;;15.50;99.90;;;;;;6190649;23;20070;-88
2021/10/04 11:13:10;;;;;;;0.00;0.00;;;15.60;99.90;;;;;;6241487;23;20023;-89
2021/10/04 11:15:41;;;;;;;0.10;0.10;;;15.60;99.90;;;;;;6238774;23;20515;-89
2021/10/04 11:29:32;;;;;;;0.10;0.10;;;16.00;99.90;;;;;;5980813;24;20051;-90
2021/10/04 11:32:11;;;;;;;0.00;0.00;;;16.10;99.90;;;;;;5953367;23;20020;-87
2021/10/04 11:34:43;;;;;;;0.00;0.00;;;16.10;99.90;;;;;;6004996;23;20392;-91
2021/10/04 12:04:11;;;;;;;0.00;0.00;;;16.10;99.90;;;;;;6319318;22;19916;-84
2021/10/04 12:06:42;;;;;;;0.00;0.00;;;16.20;99.90;;;;;;6268151;22;20022;-86
2021/10/04 12:09:17;;;;;;;0.00;0.00;;;16.10;99.90;;;;;;6293602;22;20012;-84
2021/10/04 12:12:02;;;;;;;0.00;0.00;;;16.20;99.90;;;;;;6268269;22;20016;-86
2021/10/04 12:14:29;;;;;;;0.00;0.00;;;16.20;99.90;;;;;;6269083;22;20012;-86
2021/10/04 12:17:02;;;;;;;0.00;0.00;;;16.20;99.90;;;;;;6243087;22;20249;-85
2021/10/04 12:19:29;;;;;;;0.08;0.08;;;16.30;99.90;;;;;;6268230;22;20015;-85
2021/10/04 12:21:56;;;;;;;0.00;0.00;;;16.20;99.90;;;;;;6267691;22;20016;-85
2021/10/04 12:24:26;;;;;;;0.00;0.00;;;16.30;99.90;;;;;;6268310;22;20016;-87
2021/10/04 12:27:21;;;;;;;0.00;0.00;;;16.20;99.90;;;;;;6268748;22;20474;-88
2021/10/04 12:29:59;;;;;;;0.00;0.00;;;16.20;99.90;;;;;;6264703;22;20431;-87
2021/10/04 12:32:46;;;;;;;0.00;0.00;;;16.30;99.90;;;;;;6269106;22;20022;-89
2021/10/04 12:35:24;;;;;;;0.00;0.00;;;16.30;99.90;;;;;;6294423;22;20120;-87
2021/10/04 12:37:56;;;;;;;0.00;0.00;;;16.30;99.90;;;;;;6245481;22;20016;-89
2021/10/04 12:40:31;;;;;;;0.00;0.00;;;16.30;99.90;;;;;;6269565;22;20008;-89
2021/10/04 12:43:02;;;;;;;0.00;0.00;;;16.30;99.90;;;;;;6268908;22;20015;-88
2021/10/04 12:45:30;;;;;;;0.00;0.00;;;16.30;99.90;;;;;;6269126;22;20016;-88
2021/10/04 12:48:16;;;;;;;0.00;0.00;;;16.30;99.90;;;;;;6243698;22;20015;-90
2021/10/04 12:50:48;;;;;;;0.00;0.00;;;16.30;99.90;;;;;;6268949;22;20436;-87
2021/10/04 12:53:21;;;;;;;0.10;0.10;;;16.30;99.90;;;;;;6269462;22;20019;-88
2021/10/04 12:55:49;;;;;;;0.10;0.10;;;16.30;99.90;;;;;;6268662;22;20015;-88
2021/10/04 12:58:16;;;;;;;0.08;0.08;;;16.40;99.90;;;;;;6268605;22;20016;-87
2021/10/04 13:00:43;;;;;;;0.00;0.00;;;16.40;99.90;;;;;;6243620;22;20041;-89
2021/10/04 13:03:10;;;;;;;0.00;0.00;;;16.40;99.90;;;;;;6268899;22;20008;-87
2021/10/04 13:05:37;;;;;;;0.00;0.00;;;16.40;99.90;;;;;;6268215;22;20022;-85
2021/10/04 13:08:05;;;;;;;0.00;0.00;;;16.40;99.90;;;;;;6268114;22;20024;-91
2021/10/04 13:10:32;;;;;;;0.00;0.00;;;16.40;99.90;;;;;;6268315;22;20332;-87
2021/10/04 13:13:00;;;;;;;0.00;0.00;;;16.30;99.90;;;;;;6268312;22;20015;-90
2021/10/04 13:15:32;;;;;;;0.00;0.00;;;16.40;99.90;;;;;;6268697;22;20041;-89
2021/10/04 13:18:06;;;;;;;0.10;0.10;;;16.40;99.90;;;;;;6268312;22;20095;-87
2021/10/04 13:20:32;;;;;;;0.00;0.00;;;16.40;99.90;;;;;;6268516;22;20070;-88
2021/10/04 13:22:59;;;;;;;0.00;0.00;;;16.40;99.90;;;;;;6268360;22;20070;-88
2021/10/04 13:25:26;;;;;;;0.10;0.10;;;16.40;99.90;;;;;;6269187;22;20030;-88
2021/10/04 13:27:53;;;;;;;0.00;0.00;;;16.40;99.90;;;;;;6268605;22;20050;-88
2021/10/04 13:30:20;;;;;;;0.10;0.10;;;16.40;99.90;;;;;;6268593;22;20309;-87
2021/10/04 13:32:46;;;;;;;0.05;0.05;;;16.50;99.90;;;;;;6243285;22;20085;-87
2021/10/04 13:35:13;;;;;;;0.00;0.00;;;16.50;99.90;;;;;;6267147;22;20352;-89
2021/10/04 13:37:40;;;;;;;0.00;0.00;;;16.50;99.90;;;;;;6268477;22;20015;-88
2021/10/04 13:40:07;;;;;;;0.10;0.10;;;16.40;99.90;;;;;;6268025;22;20034;-89
2021/10/04 13:42:39;;;;;;;0.00;0.00;;;16.40;99.90;;;;;;6268360;22;20371;-89
2021/10/04 13:45:08;;;;;;;0.03;0.03;;;16.50;99.90;;;;;;6267725;22;20019;-85
2021/10/04 13:47:35;;;;;;;0.00;0.00;;;16.50;99.90;;;;;;6242368;22;20019;-85
2021/10/04 13:50:05;;;;;;;0.10;0.10;;;16.40;99.90;;;;;;6266648;22;20047;-85
2021/10/04 13:52:36;;;;;;;0.15;0.08;;;16.50;99.90;;;;;;6267198;22;20069;-85
2021/10/04 13:55:08;;;;;;;0.00;0.00;;;16.50;99.90;;;;;;6267695;22;20016;-88
2021/10/04 13:57:35;;;;;;;0.00;0.00;;;16.50;99.90;;;;;;6243673;22;20015;-87
2021/10/04 14:00:31;;;;;;;0.10;0.10;;;16.50;99.90;;;;;;6268393;22;20016;-92
2021/10/04 14:02:59;;;;;;;1.42;0.20;;;16.50;99.90;;;;;;6251002;22;20452;-89
2021/10/04 14:05:26;;;;;;;0.10;0.10;;;16.50;99.90;;;;;;6267569;22;20015;-89
2021/10/04 14:07:55;;;;;;;0.10;0.10;;;16.50;99.90;;;;;;6268175;22;20034;-92
2021/10/04 14:10:31;;;;;;;0.00;0.00;;;16.50;99.90;;;;;;6268630;22;20023;-96
2021/10/04 14:12:58;;;;;;;0.00;0.00;;;16.50;99.90;;;;;;6243108;22;20062;-92
2021/10/04 14:15:33;;;;;;;0.10;0.10;;;16.50;99.90;;;;;;6270314;22;20328;-90
2021/10/04 14:17:59;;;;;;;0.00;0.00;;;16.50;99.90;;;;;;6271455;22;20020;-89
2021/10/04 14:20:26;;;;;;;0.00;0.00;;;16.40;99.90;;;;;;6274277;22;20020;-91
2021/10/04 14:22:53;;;;;;;0.10;0.10;;;16.50;99.90;;;;;;6272032;22;20075;-91
2021/10/04 14:25:21;;;;;;;0.38;0.20;;;16.40;99.90;;;;;;6271813;22;20020;-89
2021/10/04 14:28:14;;;;;;;0.47;0.10;;;16.50;99.90;;;;;;6274258;22;20089;-92
2021/10/04 14:30:41;;;;;;;0.00;0.00;;;16.40;99.90;;;;;;6253732;22;20432;-92
2021/10/04 14:33:09;;;;;;;0.00;0.00;;;16.40;99.90;;;;;;6248046;22;20024;-92
2021/10/04 14:35:37;;;;;;;0.10;0.10;;;16.40;99.90;;;;;;6249365;22;20015;-88
2021/10/04 14:38:04;;;;;;;0.00;0.00;;;16.40;99.90;;;;;;6272932;22;20085;-88
2021/10/04 14:40:32;;;;;;;0.10;0.10;;;16.40;99.90;;;;;;6272723;22;20016;-88
2021/10/04 14:42:59;;;;;;;0.00;0.00;;;16.30;99.90;;;;;;6247330;22;20034;-88
2021/10/04 14:46:02;;;;;;;;;;;;;;;;;;;;;
2021/10/04 14:48:48;;;;;;;0.00;0.00;;;16.30;99.90;;;;;;6226874;22;20050;-95
2021/10/04 14:51:18;;;;;;;0.00;0.00;;;16.30;99.90;;;;;;6274675;22;20012;-93
2021/10/04 14:53:45;;;;;;;0.10;0.10;;;16.30;99.90;;;;;;6274075;22;20027;-94
2021/10/04 14:56:12;;;;;;;0.00;0.00;;;16.30;99.90;;;;;;6224205;22;20000;-94
2021/10/04 16:32:03;;;;;;;0.00;0.00;;;14.80;99.90;;;;;;6260525;23;20021;-90
2021/10/04 16:34:32;;;;;;;;;;;14.70;99.90;;;;;;6204720;23;20361;-90
2021/10/04 16:36:59;;;;;;;0.05;0.05;;;14.70;99.90;;;;;;6180028;23;19912;-90
2021/10/04 16:39:26;;;;;;;0.00;0.00;;;14.60;99.90;;;;;;6179655;23;20527;-89
2021/10/04 16:41:56;;;;;;;0.00;0.00;;;14.60;99.90;;;;;;6179758;23;20058;-89
2021/10/04 16:44:26;;;;;;;0.00;0.00;;;14.50;99.90;;;;;;6179041;23;20024;-89
2021/10/04 16:46:58;;;;;;;0.00;0.00;;;14.40;99.90;;;;;;6179292;23;20020;-91
2021/10/04 18:00:42;;;;;;;0.00;0.00;;;12.90;99.90;;;;;;6266708;23;20024;-95
2021/10/04 18:03:09;;;;;;;0.00;0.00;;;12.80;99.90;;;;;;6241988;23;20010;-95
2021/10/04 18:05:43;;;;;;;0.00;0.00;;;12.80;99.90;;;;;;6216656;23;20020;-92
2021/10/04 18:08:11;;;;;;;0.00;0.00;;;12.80;99.90;;;;;;6239439;23;20035;-94
2021/10/04 18:10:59;;;;;;;0.05;0.05;;;12.80;99.90;;;;;;6239521;23;20027;-94
2021/10/04 18:13:53;;;;;;;0.00;0.00;;;12.80;99.90;;;;;;6227908;23;20012;-94
2021/10/04 18:16:47;;;;;;;0.00;0.00;;;12.70;99.90;;;;;;6238144;23;20023;-94
2021/10/04 18:19:54;;;;;;;0.00;0.00;;;12.70;99.90;;;;;;6218461;23;20012;-94
2021/10/04 18:23:11;;;;;;;;;;;;;;;;;;;;;
2021/10/04 18:26:02;;;;;;;;;;;;;;;;;;;;;
2021/10/04 18:29:09;;;;;;;;;;;;;;;;;;;;;
2021/10/04 18:35:22;;;;;;;;;;;;;;;;;;;;;
2021/10/04 18:38:09;;;;;;;0.03;0.03;;;12.50;99.90;;;;;;6262825;23;20087;-94
2021/10/04 18:40:49;;;;;;;;;;;;;;;;;;;;;
2021/10/04 18:43:28;;;;;;;0.00;0.00;;;12.40;99.90;;;;;;6263258;23;20023;-94
2021/10/04 18:46:15;;;;;;;0.20;0.20;;;12.40;99.90;;;;;;6208495;23;20017;-94
2021/10/04 18:49:12;;;;;;;0.00;0.00;;;12.30;99.90;;;;;;6186585;23;20017;-94
2021/10/04 18:51:49;;;;;;;0.00;0.00;;;12.30;99.90;;;;;;6186813;23;20023;-94
2021/10/04 18:54:22;;;;;;;0.00;0.00;;;12.30;99.90;;;;;;6184167;23;20024;-94
2021/10/04 18:57:01;;;;;;;0.00;0.00;;;12.30;99.90;;;;;;6208603;23;20016;-94
2021/10/04 18:59:46;;;;;;;;;;;;;;;;;;;;;
2021/10/04 19:02:41;;;;;;;;;;;;;;;;;;;;;
2021/10/04 19:05:15;;;;;;;0.00;0.00;;;12.20;99.90;;;;;;6232811;23;20017;-94
2021/10/04 19:07:44;;;;;;;0.00;0.00;;;12.20;99.90;;;;;;6207578;23;20023;-94
2021/10/04 19:10:19;;;;;;;0.00;0.00;;;12.20;99.90;;;;;;6207443;23;20060;-94
2021/10/04 19:13:17;;;;;;;0.00;0.00;;;12.20;99.90;;;;;;6184885;23;20020;-94
2021/10/04 19:16:17;;;;;;;0.00;0.00;;;12.10;99.90;;;;;;6207178;23;20013;-94
2021/10/04 19:18:57;;;;;;;0.00;0.00;;;12.10;99.90;;;;;;6231709;23;20055;-94